Time;durP1;ratioP1;P1;durP2;ratioP2;P2;SDS_P1;SDS_P2;PMS_P1;PMS_P2;Temp;Humidity;BMP_temperature;BMP_pressure;BME280_temperature;BME280_humidity;BME280_pressure;Samples;Min_cycle;Max_cycle;Signal;HPM_P1;HPM_P2
2023/05/05 00:01:01;;;;;;;5.00;3.10;;;;;;;;;;5097569;28;20183;-71
2023/05/05 00:04:05;;;;;;;4.93;2.77;;;;;;;;;;5097427;28;20171;-70
2023/05/05 00:07:09;;;;;;;3.37;2.50;;;;;;;;;;5082283;28;20202;-70
2023/05/05 00:10:13;;;;;;;6.17;2.43;;;;;;;;;;5083627;28;20187;-70
2023/05/05 00:13:19;;;;;;;4.97;2.90;;;;;;;;;;5095779;28;20564;-70
2023/05/05 00:16:23;;;;;;;5.30;2.80;;;;;;;;;;5083304;28;20175;-70
2023/05/05 00:19:27;;;;;;;3.93;2.50;;;;;;;;;;5083375;28;20183;-70
2023/05/05 00:22:31;;;;;;;5.50;2.90;;;;;;;;;;5096424;28;20210;-71
2023/05/05 00:25:36;;;;;;;3.80;2.60;;;;;;;;;;5096590;28;20179;-71
2023/05/05 00:28:40;;;;;;;3.60;2.57;;;;;;;;;;5084374;28;20179;-71
2023/05/05 00:31:44;;;;;;;4.73;2.90;;;;;;;;;;5096611;28;20215;-71
2023/05/05 00:34:49;;;;;;;6.13;2.90;;;;;;;;;;5083608;28;20194;-71
2023/05/05 00:37:53;;;;;;;4.77;2.40;;;;;;;;;;5083250;28;20175;-71
2023/05/05 00:40:57;;;;;;;3.03;2.60;;;;;;;;;;5083938;28;20194;-71
2023/05/05 00:44:04;;;;;;;3.57;2.90;;;;;;;;;;5072086;28;20194;-71
2023/05/05 00:47:08;;;;;;;4.73;2.80;;;;;;;;;;5083393;28;20207;-71
2023/05/05 00:50:21;;;;;;;4.07;2.67;;;;;;;;;;5083969;28;20175;-71
2023/05/05 00:53:26;;;;;;;6.33;3.03;;;;;;;;;;5083891;28;20614;-71
2023/05/05 00:56:30;;;;;;;4.03;2.30;;;;;;;;;;5083670;28;20171;-71
2023/05/05 00:59:35;;;;;;;6.60;2.80;;;;;;;;;;5095959;28;20171;-71
2023/05/05 01:02:40;;;;;;;3.77;2.67;;;;;;;;;;5071919;28;20215;-71
2023/05/05 01:06:08;;;;;;;2.87;2.50;;;;;;;;;;5095517;28;20518;-72
2023/05/05 01:09:50;;;;;;;3.10;2.30;;;;;;;;;;5095653;28;20183;-72
2023/05/05 01:13:19;;;;;;;3.53;2.40;;;;;;;;;;5083054;28;20211;-72
2023/05/05 01:16:29;;;;;;;3.07;2.60;;;;;;;;;;5071405;28;20174;-71
2023/05/05 01:19:54;;;;;;;4.57;2.83;;;;;;;;;;5095507;28;20186;-72
2023/05/05 01:23:04;;;;;;;4.27;2.67;;;;;;;;;;5071114;28;20680;-72
2023/05/05 01:26:40;;;;;;;7.07;2.80;;;;;;;;;;5082828;28;20206;-71
2023/05/05 01:30:16;;;;;;;4.73;2.70;;;;;;;;;;5095580;28;20183;-72
2023/05/05 01:33:26;;;;;;;5.07;2.93;;;;;;;;;;5094806;28;20617;-72
2023/05/05 01:36:36;;;;;;;4.37;2.80;;;;;;;;;;5095073;28;20175;-71
2023/05/05 01:39:43;;;;;;;4.40;2.57;;;;;;;;;;5083212;28;20179;-72
2023/05/05 01:42:49;;;;;;;4.20;3.00;;;;;;;;;;5059605;28;20218;-72
2023/05/05 01:45:54;;;;;;;4.93;2.90;;;;;;;;;;5082389;28;20194;-71
2023/05/05 01:49:00;;;;;;;6.07;3.10;;;;;;;;;;5081680;28;20194;-72
2023/05/05 01:52:05;;;;;;;5.10;2.70;;;;;;;;;;5082408;28;20216;-72
2023/05/05 01:55:10;;;;;;;4.47;2.73;;;;;;;;;;5070849;28;20178;-72
2023/05/05 01:58:17;;;;;;;4.83;2.93;;;;;;;;;;5082282;28;20622;-72
2023/05/05 02:01:24;;;;;;;2.87;2.57;;;;;;;;;;5070810;28;20218;-72
2023/05/05 02:04:30;;;;;;;3.87;2.60;;;;;;;;;;5070705;28;20179;-72
2023/05/05 02:07:35;;;;;;;3.47;2.90;;;;;;;;;;5081814;28;20203;-71
2023/05/05 02:10:39;;;;;;;4.80;2.80;;;;;;;;;;5082145;28;20195;-71
2023/05/05 02:13:45;;;;;;;3.23;2.83;;;;;;;;;;5082182;28;20597;-71
2023/05/05 02:16:55;;;;;;;3.93;3.00;;;;;;;;;;5070877;28;20190;-72
2023/05/05 02:20:01;;;;;;;4.17;3.10;;;;;;;;;;5082109;28;20622;-71
2023/05/05 02:23:06;;;;;;;3.77;3.03;;;;;;;;;;5081938;28;20219;-72
2023/05/05 02:26:12;;;;;;;4.70;2.90;;;;;;;;;;5081880;28;20555;-72
2023/05/05 02:29:21;;;;;;;3.80;2.90;;;;;;;;;;5094360;28;20194;-71
2023/05/05 02:32:39;;;;;;;4.87;2.90;;;;;;;;;;5094116;28;20569;-72
2023/05/05 02:35:45;;;;;;;5.87;3.00;;;;;;;;;;5081551;28;20179;-72
2023/05/05 02:38:56;;;;;;;3.60;3.00;;;;;;;;;;5081538;28;20178;-72
2023/05/05 02:42:05;;;;;;;5.80;3.57;;;;;;;;;;5070062;28;20254;-72
2023/05/05 02:45:13;;;;;;;5.07;3.80;;;;;;;;;;5081612;28;20542;-72
2023/05/05 02:48:20;;;;;;;4.83;3.23;;;;;;;;;;5081118;28;20210;-71
2023/05/05 02:51:26;;;;;;;4.47;3.20;;;;;;;;;;5081418;28;20216;-71
2023/05/05 02:54:32;;;;;;;4.83;2.70;;;;;;;;;;5069795;28;20175;-72
2023/05/05 02:57:47;;;;;;;6.77;3.17;;;;;;;;;;5081694;28;20175;-72
2023/05/05 03:01:00;;;;;;;4.53;3.20;;;;;;;;;;5081409;28;20187;-71
2023/05/05 03:04:14;;;;;;;4.27;2.93;;;;;;;;;;5093314;28;20179;-72
2023/05/05 03:07:43;;;;;;;5.60;3.40;;;;;;;;;;5081019;28;20226;-71
2023/05/05 03:10:58;;;;;;;5.70;3.33;;;;;;;;;;5069856;28;20183;-72
2023/05/05 03:14:07;;;;;;;5.47;3.30;;;;;;;;;;5093650;28;20195;-72
2023/05/05 03:17:13;;;;;;;5.43;3.60;;;;;;;;;;5080997;28;20183;-72
2023/05/05 03:20:17;;;;;;;5.57;3.80;;;;;;;;;;5081268;28;20186;-72
2023/05/05 03:23:25;;;;;;;4.73;3.23;;;;;;;;;;5058585;28;20179;-72
2023/05/05 03:26:33;;;;;;;4.80;3.37;;;;;;;;;;5081153;28;20179;-72
2023/05/05 03:29:38;;;;;;;3.93;3.30;;;;;;;;;;5080896;28;20186;-71
2023/05/05 03:32:46;;;;;;;4.97;3.60;;;;;;;;;;5069540;28;20568;-72
2023/05/05 03:35:51;;;;;;;7.70;3.57;;;;;;;;;;5081173;28;20187;-72
2023/05/05 03:38:56;;;;;;;9.93;4.00;;;;;;;;;;5093448;28;20179;-72
2023/05/05 03:42:02;;;;;;;4.63;3.30;;;;;;;;;;5080962;28;20518;-72
2023/05/05 03:45:09;;;;;;;3.73;3.07;;;;;;;;;;5081072;28;20175;-72
2023/05/05 03:48:14;;;;;;;4.90;3.00;;;;;;;;;;5080996;28;20207;-72
2023/05/05 03:51:19;;;;;;;4.53;3.53;;;;;;;;;;5081031;28;20206;-72
2023/05/05 03:54:23;;;;;;;22.57;4.13;;;;;;;;;;5069209;28;20179;-72
2023/05/05 03:57:27;;;;;;;16.63;5.50;;;;;;;;;;5069655;28;20171;-72
2023/05/05 04:00:31;;;;;;;5.30;3.87;;;;;;;;;;5080564;28;20178;-72
2023/05/05 04:03:35;;;;;;;6.27;3.60;;;;;;;;;;5068880;28;20629;-72
2023/05/05 04:06:39;;;;;;;5.27;3.20;;;;;;;;;;5080884;28;20662;-72
2023/05/05 04:09:44;;;;;;;5.53;3.27;;;;;;;;;;5069025;28;20187;-72
2023/05/05 04:12:49;;;;;;;7.70;3.43;;;;;;;;;;5082958;28;20542;-72
2023/05/05 04:15:54;;;;;;;11.83;3.70;;;;;;;;;;5097086;28;20183;-72
2023/05/05 04:18:58;;;;;;;9.40;3.87;;;;;;;;;;5084363;28;20511;-72
2023/05/05 04:22:02;;;;;;;8.77;3.50;;;;;;;;;;5084444;28;20210;-72
2023/05/05 04:25:07;;;;;;;6.30;3.57;;;;;;;;;;5072685;28;20183;-72
2023/05/05 04:28:11;;;;;;;8.53;4.30;;;;;;;;;;5111549;22;20198;-72
2023/05/05 04:31:15;;;;;;;6.33;3.90;;;;;;;;;;5104839;28;20214;-72
2023/05/05 04:34:21;;;;;;;6.03;3.53;;;;;;;;;;5103764;28;20206;-73
2023/05/05 04:37:26;;;;;;;5.60;3.83;;;;;;;;;;5103580;28;20190;-69
2023/05/05 04:40:31;;;;;;;6.90;3.67;;;;;;;;;;5111125;28;20194;-70
2023/05/05 04:43:36;;;;;;;7.97;4.00;;;;;;;;;;5104598;28;20544;-71
2023/05/05 04:46:41;;;;;;;4.77;3.47;;;;;;;;;;5072548;28;20179;-71
2023/05/05 04:49:45;;;;;;;5.37;3.53;;;;;;;;;;5093246;28;20190;-71
2023/05/05 04:52:49;;;;;;;7.17;4.20;;;;;;;;;;5103745;28;20217;-71
2023/05/05 04:55:53;;;;;;;5.97;3.60;;;;;;;;;;5104232;28;20178;-71
2023/05/05 04:58:57;;;;;;;6.50;3.87;;;;;;;;;;5103816;28;20174;-71
2023/05/05 05:02:02;;;;;;;6.77;3.90;;;;;;;;;;5116248;28;20653;-72
2023/05/05 05:05:11;;;;;;;7.13;3.83;;;;;;;;;;5103653;28;20178;-71
2023/05/05 05:08:17;;;;;;;5.77;3.87;;;;;;;;;;5092187;28;20210;-71
2023/05/05 05:11:21;;;;;;;7.90;5.47;;;;;;;;;;5083162;28;20219;-71
2023/05/05 05:14:26;;;;;;;13.87;6.77;;;;;;;;;;5083303;28;20202;-71
2023/05/05 05:17:31;;;;;;;6.83;4.13;;;;;;;;;;5083469;28;20175;-71
2023/05/05 05:20:36;;;;;;;7.13;4.10;;;;;;;;;;5071826;28;20515;-72
2023/05/05 05:23:40;;;;;;;9.13;6.90;;;;;;;;;;5081801;28;20183;-72
2023/05/05 05:26:45;;;;;;;7.67;5.60;;;;;;;;;;5083158;28;20182;-72
2023/05/05 05:29:49;;;;;;;11.70;5.07;;;;;;;;;;5083043;28;20202;-72
2023/05/05 05:32:53;;;;;;;13.93;4.30;;;;;;;;;;5082727;28;20550;-72
2023/05/05 05:35:57;;;;;;;7.83;4.13;;;;;;;;;;5089520;28;20190;-71
2023/05/05 05:39:02;;;;;;;31.97;5.73;;;;;;;;;;5100057;28;20186;-72
2023/05/05 05:42:07;;;;;;;8.03;4.47;;;;;;;;;;5082936;28;20717;-71
2023/05/05 05:45:11;;;;;;;9.67;4.83;;;;;;;;;;5083050;28;20179;-72
2023/05/05 05:48:16;;;;;;;10.80;4.73;;;;;;;;;;5082722;28;20206;-72
2023/05/05 05:51:20;;;;;;;9.30;4.17;;;;;;;;;;5082656;28;20581;-72
2023/05/05 05:54:25;;;;;;;14.30;4.87;;;;;;;;;;5073792;28;20175;-72
2023/05/05 05:57:29;;;;;;;8.80;4.50;;;;;;;;;;5084671;28;20171;-72
2023/05/05 06:00:33;;;;;;;8.03;4.60;;;;;;;;;;5084772;28;20187;-72
2023/05/05 06:03:43;;;;;;;12.30;5.17;;;;;;;;;;5083516;28;20191;-72
2023/05/05 06:06:47;;;;;;;10.73;5.37;;;;;;;;;;5071288;28;20182;-72
2023/05/05 06:09:51;;;;;;;8.63;4.83;;;;;;;;;;5082208;28;20195;-72
2023/05/05 06:12:55;;;;;;;11.27;5.20;;;;;;;;;;5082293;28;20214;-72
2023/05/05 06:16:00;;;;;;;13.10;5.70;;;;;;;;;;5082331;28;20546;-72
2023/05/05 06:19:08;;;;;;;10.27;6.67;;;;;;;;;;5070846;28;20175;-72
2023/05/05 06:22:13;;;;;;;15.07;6.87;;;;;;;;;;5082638;28;20222;-72
2023/05/05 06:25:17;;;;;;;9.73;7.10;;;;;;;;;;5081902;28;20174;-72
2023/05/05 06:28:21;;;;;;;10.67;7.20;;;;;;;;;;5070331;28;20231;-72
2023/05/05 06:31:25;;;;;;;11.80;6.70;;;;;;;;;;5094329;28;20210;-72
2023/05/05 06:34:30;;;;;;;11.63;6.87;;;;;;;;;;5070286;28;20175;-72
2023/05/05 06:37:34;;;;;;;11.03;7.30;;;;;;;;;;5081864;28;20198;-72
2023/05/05 06:40:38;;;;;;;11.90;7.43;;;;;;;;;;5093899;28;20211;-72
2023/05/05 06:43:43;;;;;;;8.43;7.03;;;;;;;;;;5094646;28;20174;-72
2023/05/05 06:46:50;;;;;;;10.93;7.73;;;;;;;;;;5081465;28;20187;-72
2023/05/05 06:49:54;;;;;;;9.27;7.37;;;;;;;;;;5094040;28;20171;-72
2023/05/05 06:52:59;;;;;;;11.57;7.67;;;;;;;;;;5093674;28;20214;-72
2023/05/05 06:56:03;;;;;;;10.60;7.60;;;;;;;;;;5094120;28;20199;-72
2023/05/05 06:59:08;;;;;;;9.07;6.70;;;;;;;;;;5093632;28;20190;-71
2023/05/05 07:02:12;;;;;;;11.70;7.90;;;;;;;;;;5093584;28;20210;-72
2023/05/05 07:05:16;;;;;;;11.90;8.23;;;;;;;;;;5093731;28;20175;-72
2023/05/05 07:08:20;;;;;;;12.00;8.00;;;;;;;;;;5093623;28;20203;-72
2023/05/05 07:11:24;;;;;;;9.57;7.40;;;;;;;;;;5093661;28;20214;-72
2023/05/05 07:14:29;;;;;;;12.37;7.00;;;;;;;;;;5093947;28;20179;-72
2023/05/05 07:17:32;;;;;;;14.43;8.20;;;;;;;;;;5094044;28;20526;-73
2023/05/05 07:20:37;;;;;;;10.37;8.27;;;;;;;;;;5081148;28;20519;-73
2023/05/05 07:23:41;;;;;;;12.17;8.40;;;;;;;;;;5081231;28;20198;-73
2023/05/05 07:26:45;;;;;;;10.87;8.37;;;;;;;;;;5093567;28;20179;-73
2023/05/05 07:29:49;;;;;;;9.93;7.87;;;;;;;;;;5080697;28;20230;-73
2023/05/05 07:32:53;;;;;;;14.67;8.47;;;;;;;;;;5093431;28;20218;-73
2023/05/05 07:35:57;;;;;;;13.00;8.77;;;;;;;;;;5106899;28;20201;-73
2023/05/05 07:39:02;;;;;;;12.97;9.47;;;;;;;;;;5111015;28;20178;-74
2023/05/05 07:42:06;;;;;;;11.90;8.07;;;;;;;;;;5093557;28;20218;-73
2023/05/05 07:45:10;;;;;;;12.57;9.83;;;;;;;;;;5093213;28;20202;-73
2023/05/05 07:48:16;;;;;;;16.33;10.47;;;;;;;;;;5097478;28;20222;-72
2023/05/05 07:51:21;;;;;;;14.03;9.33;;;;;;;;;;5074325;28;20588;-72
2023/05/05 07:54:26;;;;;;;14.00;10.47;;;;;;;;;;5098622;28;20175;-72
2023/05/05 07:57:30;;;;;;;12.50;9.80;;;;;;;;;;5097819;28;20182;-73
2023/05/05 08:00:34;;;;;;;13.73;9.73;;;;;;;;;;5084993;28;20175;-73
2023/05/05 08:03:38;;;;;;;13.37;10.77;;;;;;;;;;5097436;28;20186;-72
2023/05/05 08:06:42;;;;;;;12.10;9.60;;;;;;;;;;5106852;22;20534;-72
2023/05/05 08:09:46;;;;;;;17.83;10.40;;;;;;;;;;5076928;28;20211;-72
2023/05/05 08:12:51;;;;;;;18.00;10.30;;;;;;;;;;5077091;28;20229;-73
2023/05/05 08:15:55;;;;;;;12.00;9.80;;;;;;;;;;5065403;28;20184;-72
2023/05/05 08:18:59;;;;;;;15.30;9.57;;;;;;;;;;5076828;28;20184;-72
2023/05/05 08:22:03;;;;;;;11.20;9.47;;;;;;;;;;5077712;28;20222;-72
2023/05/05 08:25:11;;;;;;;11.73;9.50;;;;;;;;;;5076532;28;20177;-73
2023/05/05 08:28:15;;;;;;;10.00;8.45;;;;;;;;;;5076403;28;20203;-73
2023/05/05 08:31:20;;;;;;;19.20;9.60;;;;;;;;;;5063989;28;20220;-73
2023/05/05 08:34:25;;;;;;;13.45;9.02;;;;;;;;;;5076103;28;20178;-73
2023/05/05 08:37:29;;;;;;;13.23;8.73;;;;;;;;;;5076343;28;20182;-73
2023/05/05 08:40:36;;;;;;;9.70;7.60;;;;;;;;;;5048448;28;20211;-73
2023/05/05 08:43:42;;;;;;;11.88;7.75;;;;;;;;;;5056282;28;20187;-73
2023/05/05 08:46:48;;;;;;;11.73;8.00;;;;;;;;;;5043542;28;20183;-73
2023/05/05 08:49:54;;;;;;;10.90;7.85;;;;;;;;;;5043805;28;20210;-73
2023/05/05 08:53:09;;;;;;;9.55;6.90;;;;;;;;;;5055693;28;20220;-73
2023/05/05 08:56:14;;;;;;;8.13;6.50;;;;;;;;;;5055727;28;20199;-73
2023/05/05 08:59:23;;;;;;;8.00;6.15;;;;;;;;;;5043034;28;20187;-73
2023/05/05 09:02:29;;;;;;;9.45;6.03;;;;;;;;;;5043536;28;20563;-73
2023/05/05 09:05:34;;;;;;;6.95;4.28;;;;;;;;;;5056184;28;20188;-72
2023/05/05 09:08:40;;;;;;;7.07;4.32;;;;;;;;;;5055503;28;20666;-72
2023/05/05 09:11:44;;;;;;;5.65;4.50;;;;;;;;;;5070134;28;20714;-71
2023/05/05 09:14:48;;;;;;;10.18;3.80;;;;;;;;;;5075648;28;20179;-74
2023/05/05 09:17:56;;;;;;;8.90;5.05;;;;;;;;;;5075205;28;20191;-74
2023/05/05 09:21:18;;;;;;;6.90;4.10;;;;;;;;;;5062919;28;20543;-74
2023/05/05 09:24:22;;;;;;;5.65;4.60;;;;;;;;;;5051554;28;20518;-74
2023/05/05 09:27:26;;;;;;;4.97;4.47;;;;;;;;;;5075066;28;20176;-74
2023/05/05 09:30:30;;;;;;;5.50;4.43;;;;;;;;;;5075299;28;20207;-73
2023/05/05 09:33:34;;;;;;;16.35;4.70;;;;;;;;;;5074902;28;20193;-73
2023/05/05 09:36:49;;;;;;;5.30;4.40;;;;;;;;;;5075086;28;20634;-73
2023/05/05 09:39:54;;;;;;;7.10;4.07;;;;;;;;;;5074498;28;20182;-73
2023/05/05 09:43:01;;;;;;;4.45;4.05;;;;;;;;;;5074714;28;20215;-74
2023/05/05 09:46:06;;;;;;;11.30;3.88;;;;;;;;;;5074749;28;20197;-74
2023/05/05 09:49:11;;;;;;;14.18;4.35;;;;;;;;;;5074817;28;20203;-74
2023/05/05 09:52:15;;;;;;;4.90;4.40;;;;;;;;;;5062526;28;20218;-74
2023/05/05 09:55:20;;;;;;;4.57;3.80;;;;;;;;;;5074713;28;20538;-74
2023/05/05 09:58:29;;;;;;;5.20;3.83;;;;;;;;;;5074433;28;20182;-74
2023/05/05 10:01:33;;;;;;;7.65;3.55;;;;;;;;;;5062201;28;20321;-73
2023/05/05 10:04:38;;;;;;;8.18;4.63;;;;;;;;;;5062332;28;20640;-73
2023/05/05 10:07:44;;;;;;;5.50;4.20;;;;;;;;;;5074385;28;20566;-73
2023/05/05 10:11:06;;;;;;;10.55;4.85;;;;;;;;;;5073565;28;20227;-74
2023/05/05 10:14:14;;;;;;;9.50;4.38;;;;;;;;;;5074067;28;20187;-74
2023/05/05 10:17:21;;;;;;;4.50;4.10;;;;;;;;;;5074069;28;20179;-74
2023/05/05 10:20:26;;;;;;;8.82;4.80;;;;;;;;;;5074554;28;20176;-73
2023/05/05 10:23:48;;;;;;;5.93;4.30;;;;;;;;;;5074248;28;20522;-73
2023/05/05 10:26:55;;;;;;;8.88;4.82;;;;;;;;;;5074063;28;20180;-74
2023/05/05 10:29:59;;;;;;;8.38;4.70;;;;;;;;;;5073489;28;20199;-74
2023/05/05 10:33:13;;;;;;;8.88;3.92;;;;;;;;;;5073716;28;20215;-74
2023/05/05 10:36:19;;;;;;;6.35;4.80;;;;;;;;;;5050039;28;20184;-74
2023/05/05 10:39:25;;;;;;;7.85;5.03;;;;;;;;;;5073765;28;20176;-74
2023/05/05 10:42:29;;;;;;;6.50;4.80;;;;;;;;;;5061315;28;20570;-72
2023/05/05 10:45:33;;;;;;;7.13;5.72;;;;;;;;;;5075662;22;20175;-72
2023/05/05 10:48:55;;;;;;;5.25;3.85;;;;;;;;;;5041570;28;20540;-71
2023/05/05 10:52:20;;;;;;;5.13;4.60;;;;;;;;;;5053582;28;20567;-70
2023/05/05 10:55:47;;;;;;;16.20;5.38;;;;;;;;;;5053630;28;20630;-70
2023/05/05 10:58:51;;;;;;;8.82;4.72;;;;;;;;;;5053634;28;20180;-70
2023/05/05 11:01:56;;;;;;;4.95;4.50;;;;;;;;;;5053503;28;20220;-70
2023/05/05 11:05:16;;;;;;;5.10;3.83;;;;;;;;;;5053491;28;20176;-70
2023/05/05 11:08:24;;;;;;;7.35;4.50;;;;;;;;;;5053696;28;20624;-70
2023/05/05 11:12:00;;;;;;;5.70;4.20;;;;;;;;;;5053339;28;20691;-71
2023/05/05 11:15:26;;;;;;;6.30;4.30;;;;;;;;;;5053215;28;20181;-70
2023/05/05 11:18:30;;;;;;;8.50;3.95;;;;;;;;;;5053638;28;20177;-70
2023/05/05 11:22:00;;;;;;;31.30;6.90;;;;;;;;;;5053362;28;20215;-70
2023/05/05 11:25:36;;;;;;;9.10;4.28;;;;;;;;;;5053491;28;20536;-70
2023/05/05 11:28:54;;;;;;;35.17;5.82;;;;;;;;;;5053139;28;20177;-70
2023/05/05 11:32:17;;;;;;;5.28;3.40;;;;;;;;;;5053031;28;20220;-70
2023/05/05 11:35:23;;;;;;;6.78;4.47;;;;;;;;;;5053163;28;20180;-70
2023/05/05 11:38:48;;;;;;;5.28;4.75;;;;;;;;;;5052863;28;20180;-70
2023/05/05 11:42:29;;;;;;;3.30;2.72;;;;;;;;;;5039400;28;20563;-69
2023/05/05 11:45:33;;;;;;;3.38;2.65;;;;;;;;;;4994911;28;20563;-70
2023/05/05 11:48:47;;;;;;;6.40;2.70;;;;;;;;;;5040534;28;20177;-70
2023/05/05 11:52:02;;;;;;;5.90;2.72;;;;;;;;;;5040609;28;20204;-71
2023/05/05 11:55:07;;;;;;;3.90;2.17;;;;;;;;;;5053258;28;20189;-71
2023/05/05 11:58:18;;;;;;;2.58;2.33;;;;;;;;;;5053003;28;20180;-70
2023/05/05 12:01:22;;;;;;;4.80;2.03;;;;;;;;;;5052540;28;20204;-70
2023/05/05 12:04:26;;;;;;;3.83;2.47;;;;;;;;;;5040582;28;20177;-70
2023/05/05 12:07:32;;;;;;;3.70;2.03;;;;;;;;;;5052648;28;20631;-69
2023/05/05 12:10:36;;;;;;;10.82;2.40;;;;;;;;;;5052835;28;20559;-70
2023/05/05 12:13:40;;;;;;;4.88;2.70;;;;;;;;;;5052576;28;20192;-70
2023/05/05 12:16:57;;;;;;;6.13;2.80;;;;;;;;;;5052767;28;20202;-69
2023/05/05 12:20:02;;;;;;;8.00;2.65;;;;;;;;;;5052447;28;20185;-70
2023/05/05 12:23:10;;;;;;;4.72;2.83;;;;;;;;;;5052560;28;20219;-70
2023/05/05 12:26:29;;;;;;;26.25;4.97;;;;;;;;;;5040248;28;20181;-70
2023/05/05 12:29:33;;;;;;;3.95;2.65;;;;;;;;;;5052633;28;20674;-70
2023/05/05 12:32:37;;;;;;;10.65;3.72;;;;;;;;;;5052798;28;20216;-70
2023/05/05 12:35:41;;;;;;;4.93;2.83;;;;;;;;;;5044232;28;20184;-70
2023/05/05 12:38:45;;;;;;;4.25;3.25;;;;;;;;;;5056255;28;20173;-70
2023/05/05 12:41:50;;;;;;;6.00;3.28;;;;;;;;;;5044400;28;20539;-70
2023/05/05 12:44:54;;;;;;;7.78;2.80;;;;;;;;;;5020630;28;20237;-69
2023/05/05 12:47:58;;;;;;;9.13;3.28;;;;;;;;;;4996242;28;20206;-69
2023/05/05 12:51:15;;;;;;;10.93;5.30;;;;;;;;;;4996425;28;20199;-70
2023/05/05 12:54:19;;;;;;;5.53;2.90;;;;;;;;;;5001446;28;20210;-69
2023/05/05 12:57:24;;;;;;;6.22;3.08;;;;;;;;;;5015121;28;20529;-71
2023/05/05 13:00:28;;;;;;;6.63;3.17;;;;;;;;;;5003859;28;20170;-70
2023/05/05 13:03:33;;;;;;;6.10;3.40;;;;;;;;;;5015264;28;20174;-71
2023/05/05 13:06:42;;;;;;;61.75;20.45;;;;;;;;;;5015960;28;20182;-70
2023/05/05 13:09:49;;;;;;;14.60;6.15;;;;;;;;;;5015262;28;20220;-71
2023/05/05 13:12:55;;;;;;;7.22;4.68;;;;;;;;;;5015915;28;20574;-70
2023/05/05 13:15:59;;;;;;;4.82;3.17;;;;;;;;;;5015632;28;20181;-70
2023/05/05 13:19:03;;;;;;;4.18;3.08;;;;;;;;;;5015688;28;20181;-70
2023/05/05 13:22:11;;;;;;;5.88;2.80;;;;;;;;;;5014910;28;20206;-70
2023/05/05 13:25:15;;;;;;;12.50;3.33;;;;;;;;;;5003595;28;20182;-70
2023/05/05 13:28:19;;;;;;;3.47;2.42;;;;;;;;;;5015329;28;20197;-70
2023/05/05 13:31:23;;;;;;;5.47;2.70;;;;;;;;;;5015430;28;20225;-70
2023/05/05 13:34:27;;;;;;;5.93;2.60;;;;;;;;;;5015742;28;20186;-70
2023/05/05 13:37:31;;;;;;;3.78;2.70;;;;;;;;;;4992207;28;20185;-70
2023/05/05 13:40:35;;;;;;;3.50;2.53;;;;;;;;;;5015364;28;20189;-70
2023/05/05 13:43:39;;;;;;;4.22;2.38;;;;;;;;;;5003476;28;20175;-70
2023/05/05 13:46:43;;;;;;;3.30;2.72;;;;;;;;;;5014815;28;20213;-70
2023/05/05 13:49:47;;;;;;;8.73;2.60;;;;;;;;;;5003403;28;20188;-70
2023/05/05 13:52:51;;;;;;;4.57;2.90;;;;;;;;;;5015006;28;20223;-70
2023/05/05 13:55:56;;;;;;;5.22;3.55;;;;;;;;;;5014790;28;20188;-70
2023/05/05 13:59:01;;;;;;;4.50;3.08;;;;;;;;;;5014909;28;20181;-70
2023/05/05 14:02:06;;;;;;;3.10;2.58;;;;;;;;;;5002993;28;20216;-70
2023/05/05 14:05:10;;;;;;;3.65;2.63;;;;;;;;;;5002683;28;20196;-69
2023/05/05 14:08:14;;;;;;;4.00;2.97;;;;;;;;;;5002439;28;20196;-70
2023/05/05 14:11:19;;;;;;;4.90;3.00;;;;;;;;;;5014275;28;20231;-70
2023/05/05 14:14:23;;;;;;;6.28;2.72;;;;;;;;;;5002369;28;20190;-70
2023/05/05 14:17:27;;;;;;;5.60;2.92;;;;;;;;;;5014346;28;20180;-70
2023/05/05 14:20:31;;;;;;;5.38;2.97;;;;;;;;;;5014303;28;20180;-70
2023/05/05 14:23:35;;;;;;;5.22;2.80;;;;;;;;;;5002500;28;20184;-70
2023/05/05 14:26:39;;;;;;;7.45;2.70;;;;;;;;;;5014539;28;20181;-70
2023/05/05 14:29:43;;;;;;;5.57;3.65;;;;;;;;;;5014273;28;20544;-70
2023/05/05 14:32:47;;;;;;;5.18;4.10;;;;;;;;;;5014612;28;20217;-70
2023/05/05 14:35:51;;;;;;;8.68;4.35;;;;;;;;;;5014094;28;20181;-70
2023/05/05 14:38:56;;;;;;;6.18;3.78;;;;;;;;;;5013991;28;20223;-70
2023/05/05 14:42:00;;;;;;;3.63;3.33;;;;;;;;;;5002017;28;20212;-70
2023/05/05 14:45:06;;;;;;;6.20;4.15;;;;;;;;;;5013856;28;20200;-71
2023/05/05 14:48:10;;;;;;;6.47;3.58;;;;;;;;;;5013599;28;20507;-71
2023/05/05 14:51:14;;;;;;;7.80;4.00;;;;;;;;;;5013643;28;20219;-71
2023/05/05 14:54:19;;;;;;;6.10;3.38;;;;;;;;;;5014038;28;20630;-72
2023/05/05 14:57:23;;;;;;;3.40;2.92;;;;;;;;;;5013891;28;20182;-71
2023/05/05 15:00:27;;;;;;;12.88;3.40;;;;;;;;;;5001711;28;20180;-72
2023/05/05 15:03:31;;;;;;;8.07;3.08;;;;;;;;;;5013857;28;20202;-70
2023/05/05 15:06:35;;;;;;;10.65;3.28;;;;;;;;;;5013438;28;20204;-71
2023/05/05 15:09:39;;;;;;;6.75;3.05;;;;;;;;;;5001429;28;20183;-71
2023/05/05 15:12:44;;;;;;;6.10;2.67;;;;;;;;;;5013680;28;20216;-71
2023/05/05 15:15:48;;;;;;;16.60;3.03;;;;;;;;;;4990554;28;20648;-72
2023/05/05 15:18:52;;;;;;;4.53;2.80;;;;;;;;;;5001509;28;20208;-72
2023/05/05 15:21:56;;;;;;;5.22;2.50;;;;;;;;;;5001459;28;20685;-73
2023/05/05 15:25:00;;;;;;;4.63;2.83;;;;;;;;;;5013679;28;20186;-73
2023/05/05 15:28:04;;;;;;;6.43;2.70;;;;;;;;;;5013466;28;20183;-73
2023/05/05 15:31:08;;;;;;;27.27;4.60;;;;;;;;;;5001236;28;20201;-73
2023/05/05 15:34:13;;;;;;;3.58;2.42;;;;;;;;;;5013476;28;20529;-73
2023/05/05 15:37:17;;;;;;;4.07;2.50;;;;;;;;;;5001228;28;20191;-71
2023/05/05 15:40:21;;;;;;;5.43;2.42;;;;;;;;;;5001225;28;20630;-71
2023/05/05 15:43:25;;;;;;;7.15;2.65;;;;;;;;;;5001356;28;20618;-73
2023/05/05 15:46:31;;;;;;;2.95;2.45;;;;;;;;;;5013069;28;20213;-71
2023/05/05 15:49:36;;;;;;;3.55;2.45;;;;;;;;;;5013333;28;20173;-72
2023/05/05 15:52:40;;;;;;;5.68;2.40;;;;;;;;;;5013363;28;20210;-72
2023/05/05 15:55:45;;;;;;;4.00;2.30;;;;;;;;;;5012592;28;20186;-72
2023/05/05 15:58:48;;;;;;;20.27;3.07;;;;;;;;;;5013103;28;20202;-72
2023/05/05 16:01:53;;;;;;;13.27;3.05;;;;;;;;;;5012723;28;20216;-72
2023/05/05 16:04:57;;;;;;;6.57;1.90;;;;;;;;;;5013144;28;20538;-71
2023/05/05 16:08:01;;;;;;;3.83;2.03;;;;;;;;;;5013496;28;20520;-72
2023/05/05 16:11:05;;;;;;;4.50;2.30;;;;;;;;;;5016430;28;20205;-72
2023/05/05 16:14:09;;;;;;;6.23;2.47;;;;;;;;;;5004616;28;20228;-72
2023/05/05 16:17:13;;;;;;;3.70;2.17;;;;;;;;;;5016535;28;20175;-71
2023/05/05 16:20:18;;;;;;;53.27;4.70;;;;;;;;;;5004685;28;20184;-71
2023/05/05 16:23:21;;;;;;;32.33;4.00;;;;;;;;;;5016814;28;20253;-72
2023/05/05 16:26:25;;;;;;;6.97;2.23;;;;;;;;;;5004613;28;20541;-72
2023/05/05 16:29:29;;;;;;;3.30;2.00;;;;;;;;;;5016579;28;20188;-72
2023/05/05 16:32:33;;;;;;;5.43;2.00;;;;;;;;;;4993460;28;20224;-71
2023/05/05 16:35:37;;;;;;;11.13;2.87;;;;;;;;;;5016458;28;20223;-70
2023/05/05 16:38:42;;;;;;;6.73;2.60;;;;;;;;;;5016377;28;20179;-70
2023/05/05 16:41:47;;;;;;;4.10;2.07;;;;;;;;;;5004217;28;20215;-71
2023/05/05 16:44:51;;;;;;;4.33;2.50;;;;;;;;;;5004257;28;20181;-71
2023/05/05 16:47:55;;;;;;;3.53;2.00;;;;;;;;;;5016781;28;20186;-72
2023/05/05 16:50:59;;;;;;;5.40;2.20;;;;;;;;;;5016188;28;20207;-71
2023/05/05 16:54:03;;;;;;;3.27;2.10;;;;;;;;;;5004037;28;20192;-71
2023/05/05 16:57:08;;;;;;;5.17;2.57;;;;;;;;;;5015800;28;20650;-71
2023/05/05 17:00:13;;;;;;;5.47;2.70;;;;;;;;;;5015779;28;20186;-71
2023/05/05 17:03:18;;;;;;;3.50;2.60;;;;;;;;;;5015956;28;20177;-71
2023/05/05 17:06:22;;;;;;;4.93;2.57;;;;;;;;;;5015837;28;20634;-71
2023/05/05 17:09:27;;;;;;;12.97;3.60;;;;;;;;;;5015142;28;20181;-71
2023/05/05 17:12:31;;;;;;;8.50;3.30;;;;;;;;;;4992386;28;20217;-71
2023/05/05 17:15:36;;;;;;;5.57;2.70;;;;;;;;;;5019479;22;20676;-72
2023/05/05 17:18:40;;;;;;;4.90;2.70;;;;;;;;;;5015660;28;20182;-72
2023/05/05 17:21:44;;;;;;;6.37;2.53;;;;;;;;;;5008185;28;20217;-72
2023/05/05 17:24:49;;;;;;;5.40;2.60;;;;;;;;;;4984281;28;20182;-72
2023/05/05 17:27:54;;;;;;;5.47;2.70;;;;;;;;;;4996120;28;20183;-72
2023/05/05 17:30:58;;;;;;;3.43;2.70;;;;;;;;;;4995735;28;20178;-72
2023/05/05 17:34:02;;;;;;;9.77;3.03;;;;;;;;;;4984210;28;20190;-72
2023/05/05 17:37:08;;;;;;;4.10;2.80;;;;;;;;;;4983757;28;20186;-72
2023/05/05 17:40:12;;;;;;;11.73;3.30;;;;;;;;;;4983853;28;20174;-72
2023/05/05 17:43:16;;;;;;;4.33;3.00;;;;;;;;;;4995751;28;20183;-72
2023/05/05 17:46:20;;;;;;;11.07;3.00;;;;;;;;;;4983550;28;20179;-72
2023/05/05 17:49:25;;;;;;;6.50;3.37;;;;;;;;;;4983772;28;20186;-72
2023/05/05 17:52:29;;;;;;;7.03;3.17;;;;;;;;;;4995272;28;20230;-72
2023/05/05 17:55:33;;;;;;;7.73;3.30;;;;;;;;;;4995267;28;20178;-72
2023/05/05 17:58:37;;;;;;;55.07;5.70;;;;;;;;;;4995442;28;20182;-72
2023/05/05 18:01:41;;;;;;;14.80;4.13;;;;;;;;;;4983360;28;20213;-72
2023/05/05 18:04:46;;;;;;;5.83;3.00;;;;;;;;;;4995731;28;20178;-72
2023/05/05 18:07:50;;;;;;;4.10;3.23;;;;;;;;;;4995278;28;20183;-72
2023/05/05 18:10:54;;;;;;;4.83;3.47;;;;;;;;;;4995298;28;20190;-72
2023/05/05 18:13:59;;;;;;;7.10;3.47;;;;;;;;;;4995688;28;20506;-72
2023/05/05 18:17:03;;;;;;;4.23;3.43;;;;;;;;;;4994941;28;20202;-72
2023/05/05 18:20:08;;;;;;;5.47;3.30;;;;;;;;;;4995314;28;20185;-72
2023/05/05 18:23:12;;;;;;;4.40;3.20;;;;;;;;;;4994891;28;20693;-72
2023/05/05 18:26:16;;;;;;;5.70;3.30;;;;;;;;;;4994967;28;20178;-72
2023/05/05 18:29:20;;;;;;;4.00;3.03;;;;;;;;;;5029030;23;20574;-73
2023/05/05 18:32:25;;;;;;;7.70;3.43;;;;;;;;;;5037276;28;20690;-73
2023/05/05 18:35:29;;;;;;;5.13;3.30;;;;;;;;;;5054370;28;20176;-72